Time;durP1;ratioP1;P1;durP2;ratioP2;P2;SDS_P1;SDS_P2;PMS_P1;PMS_P2;Temp;Humidity;BMP_temperature;BMP_pressure;BME280_temperature;BME280_humidity;BME280_pressure;Samples;Min_cycle;Max_cycle;Signal;HPM_P1;HPM_P2
2023/07/31 00:01:44;;;;;;;3.43;1.73;;;;;;;22.65;62.50;100353.91;5047372;28;20203;-61
2023/07/31 00:04:09;;;;;;;3.23;1.80;;;;;;;22.66;62.65;100360.47;5034486;28;20192;-61
2023/07/31 00:06:34;;;;;;;4.07;1.90;;;;;;;22.65;63.08;100364.56;5031522;28;20190;-61
2023/07/31 00:09:00;;;;;;;3.53;1.67;;;;;;;22.65;62.69;100365.41;5036429;28;20180;-61
2023/07/31 00:11:25;;;;;;;5.93;1.60;;;;;;;22.64;62.74;100352.25;5028526;28;20195;-61
2023/07/31 00:13:53;;;;;;;4.57;2.00;;;;;;;22.64;62.77;100358.00;5026929;28;20173;-61
2023/07/31 00:16:18;;;;;;;3.53;1.80;;;;;;;22.64;63.02;100357.19;5028703;28;20268;-61
2023/07/31 00:18:44;;;;;;;6.60;2.57;;;;;;;22.63;62.87;100344.84;5055611;28;20432;-61
2023/07/31 00:21:09;;;;;;;5.27;1.70;;;;;;;22.63;63.01;100344.84;5046023;28;20220;-60
2023/07/31 00:23:34;;;;;;;3.50;1.70;;;;;;;22.62;63.02;100348.94;5043814;28;20529;-61
2023/07/31 00:26:00;;;;;;;3.33;1.60;;;;;;;22.61;62.82;100347.31;5029868;28;20188;-61
2023/07/31 00:28:27;;;;;;;4.97;2.03;;;;;;;22.60;63.09;100342.78;5009695;28;20183;-60
2023/07/31 00:30:52;;;;;;;3.50;1.50;;;;;;;22.60;62.75;100342.78;5028233;28;20153;-61
2023/07/31 00:33:18;;;;;;;6.00;1.97;;;;;;;22.60;62.86;100344.81;5035858;28;20517;-61
2023/07/31 00:35:43;;;;;;;3.47;1.60;;;;;;;22.59;62.87;100348.94;5041843;28;20200;-60
2023/07/31 00:38:09;;;;;;;4.00;1.43;;;;;;;22.58;63.14;100348.09;5028024;28;20262;-61
2023/07/31 00:40:36;;;;;;;8.90;2.50;;;;;;;22.58;62.65;100342.34;5030573;28;20221;-61
2023/07/31 00:43:01;;;;;;;4.50;1.87;;;;;;;22.59;62.54;100338.28;5027845;28;20949;-61
2023/07/31 00:45:28;;;;;;;4.50;1.80;;;;;;;22.58;62.97;100336.59;5044289;28;20422;-61
2023/07/31 00:47:54;;;;;;;5.37;1.80;;;;;;;22.58;62.48;100333.72;5047325;28;20687;-61
2023/07/31 00:50:19;;;;;;;3.47;1.63;;;;;;;22.57;62.92;100328.41;5043957;28;20469;-60
2023/07/31 00:52:44;;;;;;;3.57;1.43;;;;;;;22.57;63.03;100331.28;5031959;28;20188;-60
2023/07/31 00:55:10;;;;;;;6.53;2.17;;;;;;;22.57;62.36;100325.53;5048325;28;20745;-61
2023/07/31 00:57:36;;;;;;;2.80;1.70;;;;;;;22.56;62.50;100330.44;5064572;28;20557;-61
2023/07/31 01:00:36;;;;;;;5.10;1.97;;;;;;;22.56;62.49;100332.47;5038187;28;20263;-61
2023/07/31 01:03:01;;;;;;;4.67;1.60;;;;;;;22.55;62.66;100320.16;5044276;28;20430;-61
2023/07/31 01:05:36;;;;;;;4.27;1.80;;;;;;;22.55;62.57;100322.22;5035870;28;20442;-61
2023/07/31 01:08:26;;;;;;;5.03;2.03;;;;;;;22.54;62.48;100318.53;5049177;28;20282;-61
2023/07/31 01:10:58;;;;;;;4.10;1.90;;;;;;;22.54;62.43;100309.91;5039229;28;20525;-60
2023/07/31 01:13:23;;;;;;;5.20;1.97;;;;;;;22.53;63.03;100311.09;5031452;28;20438;-60
2023/07/31 01:15:49;;;;;;;3.80;1.63;;;;;;;22.53;63.12;100308.22;5039488;28;20438;-61
2023/07/31 01:18:14;;;;;;;6.17;1.83;;;;;;;22.51;62.50;100313.56;5043445;28;20183;-60
2023/07/31 01:20:41;;;;;;;4.27;1.87;;;;;;;22.52;62.43;100309.47;5041419;28;20291;-60
2023/07/31 01:23:25;;;;;;;5.27;1.53;;;;;;;22.52;62.54;100315.22;5043032;28;20191;-60
2023/07/31 01:25:56;;;;;;;3.33;1.60;;;;;;;22.52;62.69;100314.41;5041956;28;20510;-61
2023/07/31 01:28:28;;;;;;;3.93;1.70;;;;;;;22.51;62.41;100318.50;5037726;28;21218;-60
2023/07/31 01:30:54;;;;;;;4.93;1.73;;;;;;;22.51;62.75;100312.75;5037832;28;20493;-60
2023/07/31 01:33:19;;;;;;;3.63;1.60;;;;;;;22.50;62.90;100311.94;5030405;28;20443;-61
2023/07/31 01:35:46;;;;;;;4.57;1.40;;;;;;;22.50;62.79;100320.56;5032460;28;20188;-61
2023/07/31 01:38:11;;;;;;;3.27;1.87;;;;;;;22.50;62.31;100320.56;5029201;28;20556;-61
2023/07/31 01:40:37;;;;;;;4.33;2.00;;;;;;;22.50;62.51;100305.34;5033261;28;20475;-61
2023/07/31 01:43:02;;;;;;;3.87;1.67;;;;;;;22.50;62.55;100305.34;5029696;28;20512;-61
2023/07/31 01:45:28;;;;;;;3.90;1.90;;;;;;;22.49;62.49;100300.81;5039074;28;20183;-60
2023/07/31 01:47:53;;;;;;;4.00;1.73;;;;;;;22.50;62.70;100299.59;5036130;28;20648;-61
2023/07/31 01:50:19;;;;;;;3.50;1.63;;;;;;;22.49;62.40;100297.94;5048979;28;20239;-60
2023/07/31 01:52:44;;;;;;;3.97;1.50;;;;;;;22.49;62.49;100292.19;5033265;28;20250;-61
2023/07/31 01:55:09;;;;;;;4.37;1.27;;;;;;;22.48;62.65;100296.31;5043183;28;20206;-61
2023/07/31 01:57:36;;;;;;;3.80;1.43;;;;;;;22.47;62.46;100289.72;5049709;28;20175;-61
2023/07/31 02:00:02;;;;;;;5.57;1.40;;;;;;;22.48;62.32;100290.56;5046825;28;20187;-61
2023/07/31 02:02:27;;;;;;;3.67;1.73;;;;;;;22.47;62.00;100278.22;5047632;28;20913;-60
2023/07/31 02:04:53;;;;;;;7.20;1.77;;;;;;;22.47;62.14;100283.16;5064807;28;20190;-61
2023/07/31 02:07:18;;;;;;;3.23;1.80;;;;;;;22.46;62.38;100276.56;5032063;28;20185;-61
2023/07/31 02:09:44;;;;;;;5.33;1.80;;;;;;;22.45;62.29;100274.94;5029328;28;20180;-61
2023/07/31 02:12:09;;;;;;;6.80;2.10;;;;;;;22.46;62.07;100285.19;5033349;28;20193;-60
2023/07/31 02:14:35;;;;;;;2.57;1.40;;;;;;;22.45;62.18;100286.44;5049370;28;20179;-61
2023/07/31 02:17:00;;;;;;;3.70;1.80;;;;;;;22.45;62.49;100282.72;5049835;28;20179;-60
2023/07/31 02:19:26;;;;;;;2.30;1.60;;;;;;;22.45;62.41;100268.34;5033410;28;20278;-61
2023/07/31 02:21:51;;;;;;;3.03;1.47;;;;;;;22.45;62.02;100271.22;5030133;28;20667;-60
2023/07/31 02:24:17;;;;;;;3.60;1.83;;;;;;;22.44;62.24;100261.78;5042150;28;20523;-61
2023/07/31 02:26:42;;;;;;;3.90;1.90;;;;;;;22.43;62.10;100260.06;5046378;28;20560;-61
2023/07/31 02:29:08;;;;;;;3.00;1.53;;;;;;;22.43;61.83;100245.69;5030253;28;20169;-61
2023/07/31 02:31:34;;;;;;;3.90;1.60;;;;;;;22.42;62.27;100255.56;5053117;28;20190;-61
2023/07/31 02:33:59;;;;;;;3.43;1.70;;;;;;;22.43;61.88;100259.28;5049167;28;20410;-60
2023/07/31 02:36:24;;;;;;;10.73;1.70;;;;;;;22.41;62.27;100251.03;5041451;28;20184;-61
2023/07/31 02:38:50;;;;;;;2.27;1.37;;;;;;;22.42;62.23;100252.69;5046036;28;20242;-61
2023/07/31 02:41:15;;;;;;;4.30;1.60;;;;;;;22.41;62.06;100259.69;5047497;28;20207;-61
2023/07/31 02:43:41;;;;;;;4.80;1.73;;;;;;;22.41;61.25;100250.22;5031719;28;20199;-61
2023/07/31 02:46:06;;;;;;;2.57;1.50;;;;;;;22.41;61.68;100247.34;5028723;28;20192;-61
2023/07/31 02:48:32;;;;;;;3.27;2.00;;;;;;;22.40;61.68;100252.28;5054467;28;20384;-60
2023/07/31 02:50:57;;;;;;;5.37;1.63;;;;;;;22.40;61.54;100255.16;5029218;28;20180;-61
2023/07/31 02:53:23;;;;;;;3.73;1.57;;;;;;;22.39;61.55;100256.41;5038248;28;20183;-62
2023/07/31 02:55:48;;;;;;;3.60;1.60;;;;;;;22.39;61.25;100261.31;5036511;28;20623;-61
2023/07/31 02:58:14;;;;;;;4.17;1.90;;;;;;;22.38;61.05;100253.94;5067516;28;20240;-62
2023/07/31 03:00:43;;;;;;;6.30;1.60;;;;;;;22.38;61.09;100256.81;5037149;28;20197;-62
2023/07/31 03:03:08;;;;;;;4.87;2.00;;;;;;;22.38;61.31;100260.47;5030376;28;20184;-62
2023/07/31 03:05:34;;;;;;;5.33;1.90;;;;;;;22.37;61.06;100261.72;5028450;28;20430;-62
2023/07/31 03:07:59;;;;;;;4.47;1.70;;;;;;;22.37;61.06;100261.72;5042588;28;20191;-62
2023/07/31 03:10:25;;;;;;;5.93;2.00;;;;;;;22.37;61.30;100255.97;5030655;28;20184;-62
2023/07/31 03:12:50;;;;;;;3.80;1.97;;;;;;;22.37;61.42;100253.09;5026772;28;20180;-62
2023/07/31 03:15:15;;;;;;;5.20;1.43;;;;;;;22.36;61.26;100259.25;5034355;28;20215;-62
2023/07/31 03:17:41;;;;;;;4.40;2.00;;;;;;;22.36;61.07;100250.63;5047454;28;20820;-62
2023/07/31 03:20:08;;;;;;;5.00;1.83;;;;;;;22.36;61.77;100251.44;5042557;28;20588;-62
2023/07/31 03:22:34;;;;;;;4.57;1.70;;;;;;;22.36;61.75;100253.50;5033346;28;20192;-62
2023/07/31 03:25:01;;;;;;;2.60;1.40;;;;;;;22.35;61.41;100246.94;5029091;28;20426;-62
2023/07/31 03:27:26;;;;;;;4.50;2.30;;;;;;;22.35;61.27;100246.09;5036154;28;20442;-62
2023/07/31 03:29:52;;;;;;;4.90;1.90;;;;;;;22.35;61.32;100258.44;5044483;28;20450;-61
2023/07/31 03:32:17;;;;;;;4.13;1.73;;;;;;;22.34;61.37;100259.69;5028337;28;20222;-61
2023/07/31 03:34:43;;;;;;;3.53;1.70;;;;;;;22.34;61.71;100262.56;5035025;28;20180;-62
2023/07/31 03:37:09;;;;;;;5.07;1.70;;;;;;;22.34;61.61;100253.09;5031719;28;20188;-62
2023/07/31 03:39:35;;;;;;;2.73;1.50;;;;;;;22.33;61.43;100258.00;5035978;28;20181;-62
2023/07/31 03:42:00;;;;;;;2.60;1.50;;;;;;;22.33;61.61;100255.13;5027699;28;20465;-62
2023/07/31 03:44:26;;;;;;;3.87;1.70;;;;;;;22.33;61.63;100258.00;5030046;28;20192;-62
2023/07/31 03:46:51;;;;;;;5.77;1.80;;;;;;;22.33;61.31;100254.31;5027721;28;20187;-62
2023/07/31 03:49:16;;;;;;;4.03;1.50;;;;;;;22.33;61.18;100260.88;5042895;28;20227;-62
2023/07/31 03:51:42;;;;;;;3.30;1.50;;;;;;;22.33;61.52;100258.00;5046276;28;20172;-62
2023/07/31 03:54:08;;;;;;;3.57;1.70;;;;;;;22.33;61.37;100262.94;5039293;28;21036;-62
2023/07/31 03:56:33;;;;;;;7.30;2.00;;;;;;;22.32;61.79;100258.44;5041890;28;20520;-62
2023/07/31 03:58:59;;;;;;;3.70;1.67;;;;;;;22.32;61.58;100259.25;5030096;28;20189;-62
2023/07/31 04:01:26;;;;;;;5.37;1.63;;;;;;;22.31;61.34;100262.53;5027502;28;20200;-62
2023/07/31 04:03:51;;;;;;;5.13;1.73;;;;;;;22.31;61.15;100274.03;5029958;28;20180;-61
2023/07/31 04:06:18;;;;;;;4.00;1.40;;;;;;;22.32;61.13;100267.06;5026528;28;20438;-62
2023/07/31 04:08:44;;;;;;;2.30;1.60;;;;;;;22.31;61.58;100263.34;5045404;28;20702;-62
2023/07/31 04:11:11;;;;;;;3.80;1.70;;;;;;;22.31;61.38;100257.59;5031386;28;20521;-62
2023/07/31 04:13:36;;;;;;;2.83;1.70;;;;;;;22.31;61.68;100251.84;5026089;28;21246;-61
2023/07/31 04:16:02;;;;;;;5.30;1.90;;;;;;;22.30;61.49;100253.09;5028424;28;20439;-62
2023/07/31 04:18:27;;;;;;;3.10;1.90;;;;;;;22.29;61.57;100242.81;5050032;28;20276;-61
2023/07/31 04:30:58;;;;;;;6.00;2.17;;;;;;;22.29;61.26;100248.56;5032008;28;20481;-62
2023/07/31 04:33:24;;;;;;;3.13;1.53;;;;;;;22.29;61.28;100250.63;5028161;28;20825;-62
2023/07/31 04:35:52;;;;;;;5.17;1.73;;;;;;;22.28;61.32;100249.78;5037734;28;20176;-62
2023/07/31 04:38:20;;;;;;;5.47;1.43;;;;;;;22.29;61.42;100239.94;5041761;28;20175;-62
2023/07/31 04:40:46;;;;;;;3.10;1.83;;;;;;;22.27;61.03;100239.50;5060988;28;20563;-62
2023/07/31 04:43:11;;;;;;;4.47;1.77;;;;;;;22.27;61.39;100238.69;5019050;28;20431;-62
2023/07/31 04:45:37;;;;;;;3.30;1.50;;;;;;;22.27;60.88;100245.25;5057123;28;20171;-61
2023/07/31 04:48:02;;;;;;;3.90;1.67;;;;;;;22.28;60.79;100246.91;5049218;28;20211;-62
2023/07/31 04:50:30;;;;;;;4.40;1.83;;;;;;;22.27;61.08;100239.50;5050236;28;20226;-61
2023/07/31 04:52:55;;;;;;;5.13;1.93;;;;;;;22.27;61.40;100236.63;5036942;28;20235;-62
2023/07/31 04:55:20;;;;;;;3.50;1.47;;;;;;;22.27;60.61;100239.50;5050602;28;20434;-62
2023/07/31 04:57:46;;;;;;;4.33;1.60;;;;;;;22.26;61.35;100243.63;5050865;28;20202;-62
2023/07/31 05:00:12;;;;;;;4.83;2.03;;;;;;;22.27;60.99;100245.25;5039143;28;20194;-62
2023/07/31 05:02:37;;;;;;;2.80;1.70;;;;;;;22.27;60.88;100245.25;5049217;28;20525;-62
2023/07/31 05:05:03;;;;;;;3.33;1.53;;;;;;;22.27;61.11;100248.13;5070701;28;20179;-62
2023/07/31 05:07:28;;;;;;;2.67;1.40;;;;;;;22.26;61.07;100246.50;5040294;28;20192;-62
2023/07/31 05:09:54;;;;;;;3.73;1.70;;;;;;;22.26;61.16;100237.88;5031768;28;20168;-62
2023/07/31 05:12:19;;;;;;;3.77;1.70;;;;;;;22.27;60.90;100238.69;5051196;28;20184;-61
2023/07/31 05:14:45;;;;;;;3.47;1.67;;;;;;;22.26;60.78;100237.88;5050582;28;20184;-61
2023/07/31 05:17:10;;;;;;;4.73;2.60;;;;;;;22.27;61.03;100238.69;5048139;28;20183;-62
2023/07/31 05:19:35;;;;;;;4.17;1.63;;;;;;;22.27;61.49;100232.94;5050844;28;20168;-62
2023/07/31 05:22:01;;;;;;;3.70;2.10;;;;;;;22.26;61.16;100232.13;5050482;28;20207;-62
2023/07/31 05:24:26;;;;;;;6.03;1.70;;;;;;;22.25;60.73;100232.53;5041098;28;20176;-62
2023/07/31 05:26:52;;;;;;;8.23;2.13;;;;;;;22.26;60.92;100237.03;5048143;28;20176;-62
2023/07/31 05:29:17;;;;;;;3.07;1.77;;;;;;;22.26;61.07;100240.75;5036453;28;20214;-62
2023/07/31 05:31:43;;;;;;;4.63;2.10;;;;;;;22.25;60.70;100239.09;5036024;28;20226;-62
2023/07/31 05:34:08;;;;;;;3.60;1.70;;;;;;;22.26;60.94;100234.16;5040644;28;20199;-62
2023/07/31 05:36:34;;;;;;;4.83;2.10;;;;;;;22.26;61.19;100228.41;5037331;28;20172;-61
2023/07/31 05:38:59;;;;;;;3.10;1.43;;;;;;;22.24;60.91;100228.84;5032391;28;20183;-62
2023/07/31 05:41:25;;;;;;;3.47;1.70;;;;;;;22.25;61.21;100223.88;5045047;28;21078;-62
2023/07/31 05:43:51;;;;;;;3.87;1.70;;;;;;;22.25;61.33;100224.72;5042274;28;20212;-62
2023/07/31 05:46:16;;;;;;;5.00;1.70;;;;;;;22.25;61.03;100221.84;5035707;28;20214;-61
2023/07/31 05:48:42;;;;;;;4.93;1.83;;;;;;;22.25;61.19;100212.38;5041596;28;20506;-61
2023/07/31 05:51:07;;;;;;;4.03;2.03;;;;;;;22.25;60.68;100200.88;5052786;28;20172;-62
2023/07/31 05:53:33;;;;;;;6.17;1.60;;;;;;;22.25;60.67;100213.22;5042639;28;20290;-61
2023/07/31 05:55:58;;;;;;;3.23;1.53;;;;;;;22.25;60.65;100210.34;5045233;28;20188;-61
2023/07/31 05:58:24;;;;;;;4.90;1.90;;;;;;;22.24;60.79;100205.84;5038377;28;20179;-62
2023/07/31 06:00:49;;;;;;;4.43;2.07;;;;;;;22.24;60.94;100188.56;5036027;28;20215;-62
2023/07/31 06:03:14;;;;;;;6.80;2.23;;;;;;;22.25;61.08;100198.84;5039359;28;20734;-62
2023/07/31 06:05:40;;;;;;;7.83;2.20;;;;;;;22.40;61.95;100200.50;5033545;28;20571;-62
2023/07/31 06:08:05;;;;;;;3.50;2.00;;;;;;;22.55;62.53;100195.59;5030814;28;20181;-62
2023/07/31 06:10:31;;;;;;;7.53;2.17;;;;;;;22.66;61.99;100191.50;5037290;28;20206;-62
2023/07/31 06:12:57;;;;;;;7.97;2.97;;;;;;;22.61;61.63;100196.81;5030723;28;20209;-64
2023/07/31 06:15:22;;;;;;;10.70;3.50;;;;;;;22.63;63.70;100203.81;5033667;28;20184;-63
2023/07/31 06:17:48;;;;;;;11.17;4.33;;;;;;;22.67;64.24;100207.53;5057562;28;20179;-63
2023/07/31 06:20:13;;;;;;;8.40;2.90;;;;;;;22.60;62.98;100203.81;5035766;28;20185;-63
2023/07/31 06:22:39;;;;;;;4.90;1.83;;;;;;;22.54;61.32;100212.06;5043835;28;20189;-63
2023/07/31 06:25:05;;;;;;;6.47;2.37;;;;;;;22.49;60.65;100218.22;5037937;28;20191;-62
2023/07/31 06:27:30;;;;;;;7.57;3.00;;;;;;;22.53;61.17;100224.78;5046683;28;20175;-63
2023/07/31 06:29:57;;;;;;;7.37;2.50;;;;;;;22.52;59.04;100216.56;5035022;28;21498;-64
2023/07/31 06:32:22;;;;;;;6.17;2.00;;;;;;;22.50;59.20;100221.91;5061986;28;20207;-65
2023/07/31 06:34:48;;;;;;;7.47;2.50;;;;;;;22.48;59.17;100222.31;5057339;28;20415;-64
2023/07/31 06:37:13;;;;;;;6.50;2.10;;;;;;;22.48;58.86;100210.78;5057332;28;20166;-65
2023/07/31 06:39:39;;;;;;;7.70;2.40;;;;;;;22.48;58.62;100216.56;5060623;28;20199;-65
2023/07/31 06:42:04;;;;;;;5.53;2.40;;;;;;;22.47;58.05;100219.88;5051992;28;20192;-65
2023/07/31 06:44:30;;;;;;;4.07;2.13;;;;;;;22.49;58.13;100212.47;5048186;28;20294;-66
2023/07/31 06:46:55;;;;;;;9.57;2.20;;;;;;;22.48;58.70;100213.66;5045373;28;20188;-65
2023/07/31 06:49:21;;;;;;;9.83;2.20;;;;;;;22.45;57.78;100223.16;5054344;28;20235;-65
2023/07/31 06:51:46;;;;;;;3.03;1.87;;;;;;;22.46;59.25;100219.03;5049054;28;20218;-65
2023/07/31 06:54:12;;;;;;;6.70;2.33;;;;;;;22.46;58.70;100213.28;5055622;28;20223;-65
2023/07/31 06:56:37;;;;;;;5.80;2.43;;;;;;;22.48;58.66;100210.78;5052733;28;20186;-66
2023/07/31 06:59:03;;;;;;;6.70;2.40;;;;;;;22.47;58.30;100214.91;5051277;28;20234;-65
2023/07/31 07:01:28;;;;;;;5.63;1.80;;;;;;;22.46;58.47;100207.53;5061080;28;20207;-65
2023/07/31 07:03:54;;;;;;;4.50;2.07;;;;;;;22.46;58.20;100203.81;5042451;28;20191;-65
2023/07/31 07:06:19;;;;;;;8.83;2.40;;;;;;;22.46;57.94;100200.94;5054118;28;20206;-65
2023/07/31 07:08:45;;;;;;;6.23;1.93;;;;;;;22.48;57.92;100202.16;5033140;28;20185;-66
2023/07/31 07:11:10;;;;;;;3.80;1.80;;;;;;;22.50;57.89;100202.59;5051973;28;20178;-66
2023/07/31 07:13:36;;;;;;;11.03;2.03;;;;;;;22.49;58.37;100200.13;5047717;28;20196;-65
2023/07/31 07:16:01;;;;;;;7.43;2.37;;;;;;;22.48;58.86;100192.72;5050939;28;20175;-65
2023/07/31 07:18:27;;;;;;;9.33;2.50;;;;;;;22.48;58.52;100204.25;5034634;28;20255;-62
2023/07/31 07:20:53;;;;;;;5.83;2.30;;;;;;;22.47;58.17;100194.78;5040744;28;20199;-65
2023/07/31 07:23:18;;;;;;;4.77;2.33;;;;;;;22.48;58.43;100187.78;5039924;28;20176;-66
2023/07/31 07:25:45;;;;;;;5.17;2.50;;;;;;;22.47;58.60;100202.59;5035949;28;20419;-65
2023/07/31 07:28:10;;;;;;;7.13;2.40;;;;;;;22.45;59.18;100199.28;5030460;28;20246;-66
2023/07/31 07:30:36;;;;;;;8.47;2.53;;;;;;;22.44;58.68;100191.88;5036738;28;21059;-65
2023/07/31 07:33:01;;;;;;;5.80;2.20;;;;;;;22.40;59.37;100197.63;5033828;28;20180;-66
2023/07/31 07:35:27;;;;;;;6.70;2.20;;;;;;;22.41;59.37;100186.91;5043715;28;20266;-65
2023/07/31 07:37:53;;;;;;;8.77;2.20;;;;;;;22.40;59.65;100185.28;5033336;28;20176;-65
2023/07/31 07:40:19;;;;;;;6.67;2.23;;;;;;;22.39;59.39;100180.75;5026477;28;20215;-66
2023/07/31 07:42:45;;;;;;;6.30;2.47;;;;;;;22.39;58.99;100172.13;5039948;28;20922;-66
2023/07/31 07:45:10;;;;;;;4.40;2.30;;;;;;;22.39;59.23;100178.72;5030034;28;20447;-66
2023/07/31 07:47:35;;;;;;;8.47;2.43;;;;;;;22.38;59.17;100177.06;5036165;28;20234;-66
2023/07/31 07:50:01;;;;;;;13.17;2.43;;;;;;;22.36;59.49;100173.78;5033721;28;20247;-68
2023/07/31 07:52:26;;;;;;;10.50;3.40;;;;;;;22.35;59.77;100177.91;5049610;28;20193;-66
2023/07/31 07:54:52;;;;;;;10.17;2.80;;;;;;;22.35;58.77;100183.66;5040832;28;20175;-65
2023/07/31 07:57:18;;;;;;;7.30;2.77;;;;;;;22.34;59.25;100176.25;5040831;28;20176;-66
2023/07/31 07:59:43;;;;;;;7.03;2.20;;;;;;;22.36;59.84;100179.53;5032184;28;20180;-65
2023/07/31 08:02:09;;;;;;;11.10;2.43;;;;;;;22.38;59.92;100184.88;5031594;28;20565;-67
2023/07/31 08:04:34;;;;;;;8.97;2.43;;;;;;;22.38;59.88;100185.69;5026694;28;20195;-65
2023/07/31 08:07:00;;;;;;;12.33;2.93;;;;;;;22.38;60.22;100182.81;5030022;28;20195;-65
2023/07/31 08:09:25;;;;;;;10.23;2.50;;;;;;;22.38;60.06;100185.69;5027506;28;20632;-66
2023/07/31 08:11:51;;;;;;;5.87;2.20;;;;;;;22.39;60.63;100181.59;5040768;28;20661;-65
2023/07/31 08:14:16;;;;;;;7.00;2.63;;;;;;;22.39;60.41;100181.59;5031757;28;20207;-65
2023/07/31 08:16:42;;;;;;;11.40;2.60;;;;;;;22.39;60.13;100175.84;5050175;28;20182;-66
2023/07/31 08:19:07;;;;;;;7.17;2.27;;;;;;;22.41;60.33;100175.41;5041488;28;20694;-65
2023/07/31 08:21:33;;;;;;;8.20;2.50;;;;;;;22.39;60.65;100177.88;5026313;28;20219;-65
2023/07/31 08:23:58;;;;;;;8.00;2.83;;;;;;;22.39;59.79;100170.09;5037474;28;20187;-65
2023/07/31 08:26:23;;;;;;;5.43;2.47;;;;;;;22.39;60.48;100166.38;5064137;28;20189;-66
2023/07/31 08:28:49;;;;;;;5.03;2.10;;;;;;;22.39;60.65;100164.34;5066709;28;20239;-66
2023/07/31 08:31:14;;;;;;;5.00;2.37;;;;;;;22.38;60.29;100162.66;5054264;28;20203;-65
2023/07/31 08:33:40;;;;;;;6.70;2.23;;;;;;;22.40;60.42;100168.03;5066930;28;20164;-65
2023/07/31 08:36:05;;;;;;;7.73;2.90;;;;;;;22.39;60.46;100169.25;5065447;28;20172;-65
2023/07/31 08:38:31;;;;;;;7.20;2.43;;;;;;;22.39;61.03;100172.13;5036534;28;20179;-65
2023/07/31 08:40:57;;;;;;;8.50;2.50;;;;;;;22.37;60.34;100154.47;5064469;28;20194;-65
2023/07/31 08:43:24;;;;;;;5.93;2.23;;;;;;;22.36;60.36;100156.53;5046623;28;20172;-66
2023/07/31 08:45:50;;;;;;;6.33;2.37;;;;;;;22.37;60.73;100146.66;5026823;28;20597;-66
2023/07/31 08:48:15;;;;;;;10.90;2.30;;;;;;;22.38;60.67;100142.53;5037345;28;20858;-65
2023/07/31 08:50:41;;;;;;;6.60;2.40;;;;;;;22.37;60.32;100140.09;5034008;28;20171;-65
2023/07/31 08:53:06;;;;;;;3.50;1.70;;;;;;;22.39;60.37;100143.38;5050894;28;20183;-65
2023/07/31 08:55:32;;;;;;;5.50;2.50;;;;;;;22.38;60.39;100141.72;5031262;28;20192;-65
2023/07/31 08:57:58;;;;;;;4.97;2.17;;;;;;;22.37;60.06;100140.91;5026278;28;20187;-66
2023/07/31 09:00:25;;;;;;;4.93;2.50;;;;;;;22.37;60.67;100135.16;5035033;28;20197;-66
2023/07/31 09:03:08;;;;;;;6.10;2.00;;;;;;;22.38;60.68;100133.09;5040012;28;20188;-65
2023/07/31 09:05:33;;;;;;;5.87;2.50;;;;;;;22.38;60.34;100125.28;5044598;28;20502;-66
2023/07/31 09:08:00;;;;;;;17.30;2.73;;;;;;;22.36;59.21;100133.50;5037966;28;20495;-66
2023/07/31 09:10:25;;;;;;;20.87;3.50;;;;;;;22.36;58.95;100129.78;5039337;28;20191;-66
2023/07/31 09:12:51;;;;;;;27.37;4.33;;;;;;;22.37;58.75;100120.75;5042402;28;20434;-66
2023/07/31 09:15:17;;;;;;;15.73;3.23;;;;;;;22.38;59.21;100113.78;5026768;28;20190;-66
2023/07/31 09:17:42;;;;;;;21.80;3.80;;;;;;;22.39;58.90;100115.44;5035960;28;20176;-66
2023/07/31 09:20:20;;;;;;;13.80;3.37;;;;;;;22.39;58.84;100118.31;5026035;28;20168;-65
2023/07/31 09:22:46;;;;;;;10.90;3.10;;;;;;;22.41;58.92;100106.38;5034836;28;20180;-66
2023/07/31 09:25:16;;;;;;;7.77;2.70;;;;;;;22.40;58.81;100105.56;5038049;28;20442;-65
2023/07/31 09:27:53;;;;;;;11.40;3.13;;;;;;;22.40;58.89;100096.09;5031164;28;20437;-66
2023/07/31 09:30:18;;;;;;;9.40;2.53;;;;;;;22.42;58.64;100085.81;5029494;28;20421;-66
2023/07/31 09:32:48;;;;;;;12.17;3.13;;;;;;;22.42;59.24;100091.59;5029197;28;20946;-67
2023/07/31 09:35:18;;;;;;;7.53;2.30;;;;;;;22.42;59.38;100077.19;5032031;28;20836;-66
2023/07/31 09:37:43;;;;;;;25.43;2.93;;;;;;;22.43;58.94;100069.41;5036687;28;20434;-65
2023/07/31 09:40:09;;;;;;;12.40;2.43;;;;;;;22.45;58.30;100078.47;5042803;28;20431;-66
2023/07/31 09:42:35;;;;;;;8.03;2.57;;;;;;;22.41;58.79;100077.59;5021500;28;20216;-66
2023/07/31 09:45:08;;;;;;;5.33;2.67;;;;;;;22.43;59.19;100075.94;5045649;28;20522;-67
2023/07/31 09:47:34;;;;;;;7.07;2.53;;;;;;;22.44;58.39;100080.53;5043405;28;20584;-66
2023/07/31 09:49:59;;;;;;;4.80;2.07;;;;;;;22.46;57.97;100068.59;5030526;28;20478;-67
2023/07/31 09:52:26;;;;;;;9.57;3.10;;;;;;;22.45;58.22;100073.53;5027651;28;20168;-66
2023/07/31 09:54:51;;;;;;;7.90;2.77;;;;;;;22.44;58.30;100071.91;5038298;28;20184;-66
2023/07/31 09:57:17;;;;;;;8.63;3.40;;;;;;;22.45;58.55;100064.91;5047244;28;20508;-66
2023/07/31 09:59:42;;;;;;;5.17;2.80;;;;;;;22.46;58.50;100057.06;5045098;28;20176;-66
2023/07/31 10:02:09;;;;;;;11.83;2.83;;;;;;;22.47;58.53;100058.75;5029601;28;20267;-66
2023/07/31 10:04:34;;;;;;;9.03;2.50;;;;;;;22.46;58.28;100057.06;5042546;28;20285;-66
2023/07/31 10:07:00;;;;;;;4.57;2.17;;;;;;;22.45;58.57;100059.16;5044944;28;20443;-66
2023/07/31 10:09:25;;;;;;;6.63;2.73;;;;;;;22.45;59.45;100067.78;5041609;28;20188;-67
2023/07/31 10:11:55;;;;;;;8.17;2.70;;;;;;;22.45;58.46;100069.81;5038919;28;20168;-66
2023/07/31 10:14:21;;;;;;;5.37;2.20;;;;;;;22.44;58.07;100074.78;5044437;28;20256;-66
2023/07/31 10:16:46;;;;;;;7.87;2.47;;;;;;;22.44;58.29;100066.16;5034463;28;21105;-66
2023/07/31 10:19:12;;;;;;;6.27;2.47;;;;;;;22.44;58.36;100080.53;5035872;28;20180;-65
2023/07/31 10:21:37;;;;;;;4.60;2.13;;;;;;;22.43;58.29;100081.72;5037965;28;20219;-66
2023/07/31 10:24:06;;;;;;;8.93;3.03;;;;;;;22.42;57.79;100074.31;5039619;28;20211;-65
2023/07/31 10:26:33;;;;;;;9.40;3.10;;;;;;;22.42;58.33;100077.19;5038949;28;20192;-66
2023/07/31 10:28:59;;;;;;;8.60;2.80;;;;;;;22.44;57.58;100074.78;5031033;28;20435;-66
2023/07/31 10:31:25;;;;;;;7.10;2.93;;;;;;;22.44;57.71;100074.78;5036695;28;20426;-66
2023/07/31 10:33:52;;;;;;;7.70;2.30;;;;;;;22.43;57.94;100075.16;5028030;28;20431;-66
2023/07/31 10:36:18;;;;;;;7.27;2.73;;;;;;;22.45;58.26;100072.69;5030198;28;20181;-66
2023/07/31 10:38:44;;;;;;;9.43;2.90;;;;;;;22.44;57.96;100065.28;5039270;28;20747;-66
2023/07/31 10:41:10;;;;;;;4.90;2.50;;;;;;;22.44;57.68;100074.78;5029933;28;20466;-65
2023/07/31 10:43:36;;;;;;;7.83;3.10;;;;;;;22.43;57.76;100075.94;5044348;28;20188;-66
2023/07/31 10:46:06;;;;;;;7.30;2.80;;;;;;;22.44;58.17;100068.16;5038609;28;20179;-66
2023/07/31 10:48:33;;;;;;;5.80;2.70;;;;;;;22.44;58.49;100077.66;5036172;28;20479;-66
2023/07/31 10:50:59;;;;;;;6.40;2.90;;;;;;;22.44;57.39;100066.16;5029502;28;20419;-66
2023/07/31 10:53:32;;;;;;;7.03;2.73;;;;;;;22.43;57.73;100064.44;5031277;28;20525;-66
2023/07/31 10:55:59;;;;;;;6.47;2.50;;;;;;;22.42;58.81;100065.69;5044851;28;20440;-66
2023/07/31 10:58:24;;;;;;;6.87;2.30;;;;;;;22.44;58.00;100060.41;5042934;28;20785;-66
2023/07/31 11:00:55;;;;;;;9.33;2.57;;;;;;;22.43;58.00;100061.56;5045549;28;20501;-67
2023/07/31 11:03:22;;;;;;;6.53;2.47;;;;;;;22.43;57.68;100061.56;5026691;28;20195;-66
2023/07/31 11:06:03;;;;;;;4.60;2.40;;;;;;;22.45;58.92;100062.03;5026518;28;20439;-65
2023/07/31 11:08:29;;;;;;;5.17;2.80;;;;;;;22.44;58.04;100062.41;5038924;28;20443;-65
2023/07/31 11:11:01;;;;;;;7.47;2.57;;;;;;;22.45;57.91;100056.28;5028777;28;20459;-66
2023/07/31 11:13:27;;;;;;;6.00;2.50;;;;;;;22.44;57.45;100066.16;5034232;28;20457;-66
2023/07/31 11:15:52;;;;;;;9.83;3.00;;;;;;;22.45;57.83;100064.06;5043124;28;20423;-66
2023/07/31 11:18:18;;;;;;;8.97;2.63;;;;;;;22.45;57.36;100039.00;5034527;28;20238;-66
2023/07/31 11:20:43;;;;;;;10.67;3.13;;;;;;;22.45;58.75;100039.00;5042412;28;20215;-65
2023/07/31 11:23:10;;;;;;;6.90;2.40;;;;;;;22.45;58.05;100044.78;5042593;28;20199;-65
2023/07/31 11:25:35;;;;;;;9.63;3.00;;;;;;;22.47;58.14;100047.25;5034538;28;21017;-66
2023/07/31 11:28:05;;;;;;;8.07;2.67;;;;;;;22.46;58.10;100037.78;5031175;28;20527;-66
2023/07/31 11:30:30;;;;;;;6.73;2.77;;;;;;;22.46;58.14;100040.66;5025813;28;20180;-66